Time;durP1;ratioP1;P1;durP2;ratioP2;P2;SDS_P1;SDS_P2;PMS_P1;PMS_P2;Temp;Humidity;BMP_temperature;BMP_pressure;BME280_temperature;BME280_humidity;BME280_pressure;Samples;Min_cycle;Max_cycle;Signal;HPM_P1;HPM_P2
2022/04/03 00:00:45;;;;;;;3.90;1.90;;;-2.60;99.90;;;;;;4948844;28;20578;-79
2022/04/03 00:03:11;;;;;;;2.60;1.77;;;-2.70;99.90;;;;;;4965246;28;20275;-78
2022/04/03 00:05:41;;;;;;;2.83;1.80;;;-2.60;99.90;;;;;;4965313;28;20691;-78
2022/04/03 00:08:08;;;;;;;2.93;1.67;;;-2.60;99.90;;;;;;4947439;28;20267;-78
2022/04/03 00:10:35;;;;;;;2.70;1.67;;;-2.70;99.90;;;;;;4947736;28;20193;-79
2022/04/03 00:13:01;;;;;;;1.67;1.43;;;-2.70;99.90;;;;;;4956613;28;20193;-78
2022/04/03 00:15:27;;;;;;;3.57;1.60;;;-2.80;99.90;;;;;;4965955;28;20185;-78
2022/04/03 00:17:52;;;;;;;3.97;1.77;;;-3.00;99.90;;;;;;4965340;28;20608;-78
2022/04/03 00:20:19;;;;;;;2.83;1.77;;;-2.80;99.90;;;;;;4947434;28;20559;-78
2022/04/03 00:22:48;;;;;;;2.80;1.77;;;-2.80;99.90;;;;;;4965098;28;20192;-78
2022/04/03 00:25:14;;;;;;;2.97;1.87;;;-2.80;99.90;;;;;;4946943;28;20319;-78
2022/04/03 00:27:40;;;;;;;3.40;1.87;;;-2.90;99.90;;;;;;4947375;28;20216;-79
2022/04/03 00:30:10;;;;;;;3.00;1.50;;;-2.80;99.90;;;;;;4947246;28;21207;-79
2022/04/03 00:32:35;;;;;;;2.23;1.33;;;-2.80;99.90;;;;;;4947109;28;20212;-77
2022/04/03 00:35:02;;;;;;;1.77;1.33;;;-3.00;99.90;;;;;;4948239;28;20250;-78
2022/04/03 00:37:27;;;;;;;3.00;1.47;;;-3.00;99.90;;;;;;4964879;28;20712;-78
2022/04/03 00:39:53;;;;;;;2.57;1.67;;;-3.00;99.90;;;;;;4965648;28;20181;-78
2022/04/03 00:42:19;;;;;;;4.13;1.70;;;-3.10;99.90;;;;;;4964875;28;20242;-78
2022/04/03 00:44:44;;;;;;;1.50;1.20;;;-3.10;99.90;;;;;;4947454;28;20195;-77
2022/04/03 00:47:12;;;;;;;1.77;1.50;;;-3.20;99.90;;;;;;4964443;28;20184;-78
2022/04/03 00:49:38;;;;;;;2.23;1.33;;;-3.10;99.90;;;;;;4946852;28;20229;-78
2022/04/03 00:52:04;;;;;;;2.23;1.70;;;-3.10;99.90;;;;;;4947155;28;20700;-78
2022/04/03 00:54:30;;;;;;;2.00;1.47;;;-3.10;99.90;;;;;;4956163;28;20181;-79
2022/04/03 00:56:55;;;;;;;2.67;1.80;;;-3.10;99.90;;;;;;4946358;28;20242;-79
2022/04/03 00:59:22;;;;;;;2.13;1.57;;;-3.00;99.90;;;;;;4964160;28;20205;-78
2022/04/03 01:01:47;;;;;;;2.47;1.77;;;-3.10;99.90;;;;;;4964517;28;20196;-80
2022/04/03 01:04:13;;;;;;;2.77;1.93;;;-3.20;99.90;;;;;;4946354;28;20195;-78
2022/04/03 01:06:39;;;;;;;1.97;1.73;;;-3.00;99.90;;;;;;4964390;28;20187;-80
2022/04/03 01:09:05;;;;;;;2.23;1.37;;;-3.10;99.90;;;;;;4946469;28;20697;-79
2022/04/03 01:11:31;;;;;;;3.37;1.80;;;-3.30;99.90;;;;;;4962092;28;20278;-79
2022/04/03 01:13:57;;;;;;;3.53;2.07;;;-3.30;99.90;;;;;;4947156;28;20216;-78
2022/04/03 01:16:23;;;;;;;2.30;1.70;;;-3.20;99.90;;;;;;4962695;28;20216;-78
2022/04/03 01:18:50;;;;;;;2.80;1.70;;;-3.40;99.90;;;;;;4946687;28;20205;-84
2022/04/03 01:21:17;;;;;;;3.37;2.23;;;-3.40;99.90;;;;;;4947372;28;20193;-80
2022/04/03 01:23:44;;;;;;;2.90;1.77;;;-3.30;99.90;;;;;;4945639;28;20288;-79
2022/04/03 01:26:09;;;;;;;2.03;1.83;;;-3.40;99.90;;;;;;4946352;28;20196;-77
2022/04/03 01:28:35;;;;;;;2.63;1.63;;;-3.30;99.90;;;;;;4946210;28;20208;-78
2022/04/03 01:31:01;;;;;;;2.50;1.80;;;-3.30;99.90;;;;;;4956474;28;20249;-78
2022/04/03 01:33:26;;;;;;;2.27;1.57;;;-3.30;99.90;;;;;;4946288;28;20307;-78
2022/04/03 01:35:52;;;;;;;2.13;1.60;;;-3.30;99.90;;;;;;4946386;28;21057;-78
2022/04/03 01:38:18;;;;;;;1.87;1.50;;;-3.30;99.90;;;;;;4946266;28;20215;-80
2022/04/03 01:40:43;;;;;;;2.23;1.67;;;-3.40;99.90;;;;;;4964542;28;20200;-80
2022/04/03 01:43:10;;;;;;;3.00;1.60;;;-3.40;99.90;;;;;;4946503;28;20199;-78
2022/04/03 01:45:37;;;;;;;2.23;1.80;;;-3.50;99.90;;;;;;4945863;28;20211;-79
2022/04/03 01:48:04;;;;;;;3.40;1.40;;;-3.50;99.90;;;;;;4945480;28;20229;-78
2022/04/03 01:50:30;;;;;;;1.60;1.30;;;-3.50;99.90;;;;;;4962660;28;20516;-79
2022/04/03 01:52:56;;;;;;;2.63;1.80;;;-3.50;99.90;;;;;;4963999;28;20188;-77
2022/04/03 01:55:23;;;;;;;4.50;1.63;;;-3.40;99.90;;;;;;4947158;28;20181;-79
2022/04/03 01:57:48;;;;;;;1.90;1.30;;;-3.40;99.90;;;;;;4963277;28;20208;-81
2022/04/03 02:00:14;;;;;;;1.50;1.13;;;-3.70;99.90;;;;;;4948484;28;20192;-80
2022/04/03 02:02:40;;;;;;;2.30;1.70;;;-3.90;99.90;;;;;;4964403;28;20264;-80
2022/04/03 02:05:06;;;;;;;1.70;1.30;;;-3.80;99.90;;;;;;4964742;28;20220;-80
2022/04/03 02:07:33;;;;;;;3.33;1.90;;;-3.70;99.90;;;;;;4946121;28;20177;-78
2022/04/03 02:09:59;;;;;;;3.37;1.60;;;-3.70;99.90;;;;;;4947196;28;20310;-79
2022/04/03 02:12:25;;;;;;;1.53;1.27;;;-3.60;99.90;;;;;;4964472;28;20219;-79
2022/04/03 02:14:50;;;;;;;2.43;1.60;;;-3.50;99.90;;;;;;4947242;28;20684;-78
2022/04/03 02:17:16;;;;;;;1.40;1.20;;;-3.50;99.90;;;;;;4983169;28;20628;-79
2022/04/03 02:19:41;;;;;;;3.40;1.67;;;-3.60;99.90;;;;;;4949778;28;20181;-78
2022/04/03 02:22:08;;;;;;;1.83;1.30;;;-3.50;99.90;;;;;;4967724;28;20185;-79
2022/04/03 02:24:33;;;;;;;3.27;1.53;;;-3.60;99.90;;;;;;4967981;28;20185;-79
2022/04/03 02:26:59;;;;;;;3.07;1.90;;;-3.80;99.90;;;;;;4965684;28;20558;-80
2022/04/03 02:29:24;;;;;;;1.80;1.63;;;-3.80;99.90;;;;;;4967560;28;20254;-79
2022/04/03 02:31:50;;;;;;;2.47;1.67;;;-3.90;99.90;;;;;;4967295;28;20244;-78
2022/04/03 02:34:17;;;;;;;3.43;2.20;;;-3.90;99.90;;;;;;4966944;28;20615;-78
2022/04/03 02:36:43;;;;;;;6.17;2.30;;;-4.00;99.90;;;;;;4966909;28;20184;-80
2022/04/03 02:39:09;;;;;;;4.70;2.73;;;-4.10;99.90;;;;;;4948669;28;20232;-79
2022/04/03 02:41:35;;;;;;;5.70;2.80;;;-4.10;99.90;;;;;;4949458;28;20733;-79
2022/04/03 02:44:01;;;;;;;5.30;2.73;;;-4.10;99.90;;;;;;4966556;28;20204;-78
2022/04/03 02:46:27;;;;;;;6.93;2.43;;;-4.10;99.90;;;;;;4966637;28;20197;-78
2022/04/03 02:48:52;;;;;;;2.60;1.80;;;-4.20;99.90;;;;;;4966525;28;20786;-80
2022/04/03 02:51:18;;;;;;;4.57;2.10;;;-4.10;99.90;;;;;;4966848;28;20585;-78
2022/04/03 02:53:44;;;;;;;3.90;2.50;;;-4.10;99.90;;;;;;4966693;28;20242;-79
2022/04/03 02:56:09;;;;;;;5.73;3.10;;;-4.00;99.90;;;;;;4949228;28;20275;-80
2022/04/03 02:58:35;;;;;;;4.33;2.57;;;-4.00;99.90;;;;;;4948804;28;20286;-81
2022/04/03 03:01:00;;;;;;;3.00;2.20;;;-4.10;99.90;;;;;;4966906;28;20197;-79
2022/04/03 03:03:26;;;;;;;3.77;2.40;;;-4.00;99.90;;;;;;4948788;28;20179;-79
2022/04/03 03:05:52;;;;;;;5.10;2.67;;;-4.10;99.90;;;;;;4949339;28;20180;-80
2022/04/03 03:08:18;;;;;;;3.43;2.27;;;-4.00;99.90;;;;;;4950205;28;20226;-78
2022/04/03 03:10:44;;;;;;;3.60;2.30;;;-4.00;99.90;;;;;;4969459;28;20217;-78
2022/04/03 03:13:09;;;;;;;5.10;3.00;;;-4.20;99.90;;;;;;4970179;28;20542;-79
2022/04/03 03:15:35;;;;;;;4.47;2.60;;;-4.30;99.90;;;;;;4953020;28;20176;-77
2022/04/03 03:18:00;;;;;;;3.50;1.70;;;-4.30;99.90;;;;;;4970178;28;20211;-79
2022/04/03 03:20:26;;;;;;;3.27;1.90;;;-4.40;99.90;;;;;;4953203;28;20200;-78
2022/04/03 03:22:52;;;;;;;2.80;1.97;;;-4.40;99.90;;;;;;4952794;28;20674;-78
2022/04/03 03:25:18;;;;;;;3.00;1.93;;;-4.30;99.90;;;;;;4953028;28;20225;-79
2022/04/03 03:27:44;;;;;;;2.53;1.70;;;-4.20;99.90;;;;;;4969507;28;20259;-79
2022/04/03 03:30:11;;;;;;;2.73;1.60;;;-4.30;99.90;;;;;;4971142;28;20189;-79
2022/04/03 03:32:37;;;;;;;2.13;1.43;;;-4.30;99.90;;;;;;4951575;28;20304;-77
2022/04/03 03:35:03;;;;;;;2.80;1.50;;;-4.40;99.90;;;;;;4970502;28;20861;-79
2022/04/03 03:37:29;;;;;;;3.17;1.67;;;-4.40;99.90;;;;;;4970650;28;20284;-79
2022/04/03 03:39:55;;;;;;;1.90;1.70;;;-4.40;99.90;;;;;;4973805;28;20226;-79
2022/04/03 03:42:20;;;;;;;4.07;1.70;;;-4.40;99.90;;;;;;4955493;28;20204;-79
2022/04/03 03:44:46;;;;;;;2.03;1.40;;;-4.20;99.90;;;;;;4974153;28;20238;-78
2022/04/03 03:47:13;;;;;;;2.53;1.53;;;-4.20;99.90;;;;;;4955331;28;20195;-78
2022/04/03 03:49:39;;;;;;;2.90;1.90;;;-4.20;99.90;;;;;;4973022;28;20279;-78
2022/04/03 03:52:05;;;;;;;2.63;1.70;;;-4.30;99.90;;;;;;4973423;28;20242;-78
2022/04/03 03:54:31;;;;;;;3.17;1.53;;;-4.30;99.90;;;;;;4973652;28;20754;-78
2022/04/03 03:56:58;;;;;;;2.17;1.90;;;-4.20;99.90;;;;;;4973479;28;20197;-78
2022/04/03 03:59:24;;;;;;;2.27;1.67;;;-4.00;99.90;;;;;;4955018;28;20215;-78
2022/04/03 04:01:50;;;;;;;2.13;1.60;;;-4.00;99.90;;;;;;4962819;28;20212;-78
2022/04/03 04:04:15;;;;;;;2.83;1.73;;;-4.10;99.90;;;;;;4973250;28;20193;-79
2022/04/03 04:06:41;;;;;;;4.13;1.80;;;-4.20;99.90;;;;;;4973218;28;20232;-79
2022/04/03 04:09:06;;;;;;;1.93;1.67;;;-4.20;99.90;;;;;;4955629;28;20223;-77
2022/04/03 04:11:32;;;;;;;2.87;1.70;;;-4.10;99.90;;;;;;4954109;28;20208;-78
2022/04/03 04:13:58;;;;;;;4.33;1.50;;;-3.90;99.90;;;;;;4972355;28;20752;-78
2022/04/03 04:16:24;;;;;;;2.13;1.30;;;-3.90;99.90;;;;;;4954466;28;20185;-79
2022/04/03 04:18:50;;;;;;;3.33;1.80;;;-4.10;99.90;;;;;;4972417;28;20201;-78
2022/04/03 04:21:16;;;;;;;3.63;1.83;;;-4.10;99.90;;;;;;4982317;28;20191;-77
2022/04/03 04:23:42;;;;;;;2.87;1.70;;;-4.10;99.90;;;;;;4971848;28;20272;-78
2022/04/03 04:26:08;;;;;;;2.33;1.70;;;-3.90;99.90;;;;;;4969832;28;20212;-78
2022/04/03 04:28:35;;;;;;;2.57;1.57;;;-3.90;99.90;;;;;;4970905;28;20205;-78
2022/04/03 04:31:01;;;;;;;2.37;1.80;;;-3.80;99.90;;;;;;4972857;28;20265;-79
2022/04/03 04:33:27;;;;;;;2.17;1.53;;;-4.00;99.90;;;;;;4971477;28;20245;-78
2022/04/03 04:35:52;;;;;;;2.60;1.57;;;-4.00;99.90;;;;;;4953278;28;20675;-79
2022/04/03 04:38:18;;;;;;;2.43;1.60;;;-3.90;99.90;;;;;;4971454;28;20572;-79
2022/04/03 04:40:44;;;;;;;2.87;1.57;;;-3.80;99.90;;;;;;4970815;28;20181;-78
2022/04/03 04:43:10;;;;;;;14.67;6.43;;;-3.70;99.90;;;;;;4952930;28;20250;-78
2022/04/03 04:45:36;;;;;;;7.57;4.07;;;-3.50;99.90;;;;;;4970894;28;20246;-79
2022/04/03 04:48:02;;;;;;;15.83;9.83;;;-3.60;99.90;;;;;;4967988;28;21238;-80
2022/04/03 04:50:29;;;;;;;14.50;10.00;;;-3.60;99.90;;;;;;4947602;28;20212;-78
2022/04/03 04:52:56;;;;;;;9.53;6.33;;;-3.40;99.90;;;;;;4956027;28;20209;-78
2022/04/03 04:55:22;;;;;;;4.70;3.43;;;-3.40;99.90;;;;;;4965079;28;20185;-80
2022/04/03 04:57:54;;;;;;;4.07;2.53;;;-3.40;99.90;;;;;;4946291;28;20686;-79
2022/04/03 05:00:21;;;;;;;3.43;2.10;;;-3.40;99.90;;;;;;4965291;28;20177;-78
2022/04/03 05:02:48;;;;;;;2.60;2.00;;;-3.30;99.90;;;;;;4964216;28;20177;-80
2022/04/03 05:05:18;;;;;;;3.23;1.77;;;-3.30;99.90;;;;;;4946984;28;20558;-79
2022/04/03 05:07:44;;;;;;;5.10;1.80;;;-3.30;99.90;;;;;;4963651;28;20446;-79
2022/04/03 05:10:13;;;;;;;4.23;3.17;;;-3.20;99.90;;;;;;4946669;28;20200;-79
2022/04/03 05:12:39;;;;;;;3.83;2.80;;;-3.10;99.90;;;;;;4961787;28;20208;-79
2022/04/03 05:15:09;;;;;;;3.47;2.20;;;-3.10;99.90;;;;;;4946711;28;20185;-79
2022/04/03 05:17:35;;;;;;;2.90;1.80;;;-3.10;99.90;;;;;;4963410;28;20258;-79
2022/04/03 05:20:00;;;;;;;5.17;2.00;;;-2.90;99.90;;;;;;4946503;28;20185;-80
2022/04/03 05:22:26;;;;;;;2.10;1.70;;;-2.90;99.90;;;;;;4947549;28;20220;-79
2022/04/03 05:24:53;;;;;;;1.90;1.70;;;-2.80;99.90;;;;;;4948156;28;20185;-80
2022/04/03 05:27:19;;;;;;;3.00;2.00;;;-2.80;99.90;;;;;;4964981;28;20719;-80
2022/04/03 05:29:46;;;;;;;2.60;1.67;;;-2.80;99.90;;;;;;4947803;28;20556;-79
2022/04/03 05:32:11;;;;;;;3.20;2.10;;;-2.80;99.90;;;;;;4965549;28;20205;-80
2022/04/03 05:34:37;;;;;;;3.80;2.67;;;-2.60;99.90;;;;;;4947533;28;20173;-80
2022/04/03 05:37:03;;;;;;;2.70;1.93;;;-2.50;99.90;;;;;;4947631;28;20250;-79
2022/04/03 05:39:29;;;;;;;3.63;2.00;;;-2.50;99.90;;;;;;4947607;28;20295;-79
2022/04/03 05:41:55;;;;;;;4.57;2.43;;;-2.30;99.90;;;;;;4947779;28;20193;-80
2022/04/03 05:44:22;;;;;;;6.43;3.30;;;-2.20;99.90;;;;;;4947668;28;20275;-79
2022/04/03 05:46:48;;;;;;;9.37;4.97;;;-2.10;99.90;;;;;;4947175;28;21055;-79
2022/04/03 05:49:14;;;;;;;6.40;3.83;;;-2.10;99.90;;;;;;4947882;28;20383;-80
2022/04/03 05:51:40;;;;;;;5.97;3.50;;;-2.00;99.90;;;;;;4968327;28;20208;-79
2022/04/03 05:54:06;;;;;;;9.03;4.47;;;-2.00;99.90;;;;;;4951189;28;20195;-80
2022/04/03 05:56:31;;;;;;;9.27;4.33;;;-1.90;99.90;;;;;;4950677;28;20185;-80
2022/04/03 05:58:58;;;;;;;8.50;4.53;;;-1.80;99.90;;;;;;4950127;28;20205;-79
2022/04/03 06:01:24;;;;;;;6.53;3.67;;;-1.70;99.90;;;;;;4966781;28;20185;-79
2022/04/03 06:03:50;;;;;;;3.03;2.30;;;-1.60;99.90;;;;;;4950691;28;20189;-78
2022/04/03 06:06:16;;;;;;;3.63;2.20;;;-1.50;99.90;;;;;;4969061;28;20654;-80
2022/04/03 06:08:43;;;;;;;4.23;2.30;;;-1.50;99.90;;;;;;4970328;28;20208;-78
2022/04/03 06:11:08;;;;;;;4.37;2.80;;;-1.40;99.90;;;;;;4952396;28;21200;-78
2022/04/03 06:13:34;;;;;;;3.30;2.10;;;-1.40;99.90;;;;;;4950267;28;20326;-80
2022/04/03 06:16:00;;;;;;;4.00;2.37;;;-1.30;99.90;;;;;;4958007;28;20246;-79
2022/04/03 06:18:26;;;;;;;5.03;2.67;;;-1.10;99.90;;;;;;4951088;28;20197;-79
2022/04/03 06:20:52;;;;;;;4.03;2.47;;;-0.90;99.90;;;;;;4968967;28;20193;-78
2022/04/03 06:23:20;;;;;;;2.93;2.20;;;-0.90;99.90;;;;;;4968847;28;20177;-79
2022/04/03 06:25:52;;;;;;;3.70;2.40;;;-0.80;99.90;;;;;;4969015;28;20199;-78
2022/04/03 06:28:18;;;;;;;2.80;1.97;;;-0.50;99.90;;;;;;4968724;28;20204;-78
2022/04/03 06:30:44;;;;;;;5.40;2.27;;;-0.40;99.90;;;;;;4967375;28;20539;-79
2022/04/03 06:33:10;;;;;;;4.97;2.43;;;-0.30;99.90;;;;;;4948585;28;20248;-78
2022/04/03 06:35:36;;;;;;;7.70;2.80;;;-0.20;99.90;;;;;;4964991;28;20181;-78
2022/04/03 06:38:02;;;;;;;4.13;2.27;;;-0.20;99.90;;;;;;4966158;28;20201;-78
2022/04/03 06:40:28;;;;;;;7.47;2.87;;;-0.20;99.90;;;;;;4966820;28;20567;-77
2022/04/03 06:42:54;;;;;;;5.07;2.43;;;-0.30;99.90;;;;;;4948861;28;20691;-76
2022/04/03 06:45:20;;;;;;;4.27;2.10;;;-0.30;99.90;;;;;;4946398;28;20181;-78
2022/04/03 06:47:46;;;;;;;3.33;2.17;;;-0.40;99.90;;;;;;4947914;28;20227;-79
2022/04/03 06:50:12;;;;;;;4.33;2.20;;;-0.30;99.90;;;;;;4968187;28;20181;-78
2022/04/03 06:52:38;;;;;;;4.87;2.40;;;-0.20;99.90;;;;;;4967378;28;20205;-78
2022/04/03 06:55:05;;;;;;;6.40;3.43;;;-0.10;99.90;;;;;;4968371;28;20230;-78
2022/04/03 06:57:30;;;;;;;4.97;2.93;;;0.10;99.90;;;;;;4967540;28;20215;-77
2022/04/03 06:59:56;;;;;;;4.67;2.73;;;0.20;99.90;;;;;;4968480;28;20669;-77
2022/04/03 07:02:22;;;;;;;3.80;2.00;;;0.30;99.90;;;;;;4965868;28;20192;-77
2022/04/03 07:04:47;;;;;;;2.20;1.73;;;0.50;99.90;;;;;;4948792;28;20189;-77
2022/04/03 07:07:24;;;;;;;3.73;2.10;;;0.60;99.90;;;;;;4950271;28;20255;-77
2022/04/03 07:09:50;;;;;;;2.00;1.67;;;0.80;99.90;;;;;;4951954;28;20181;-77
2022/04/03 07:12:16;;;;;;;2.03;1.50;;;1.00;99.90;;;;;;4968913;28;20209;-79
2022/04/03 07:14:42;;;;;;;2.27;1.50;;;1.20;99.90;;;;;;4968486;28;20245;-77
2022/04/03 07:17:07;;;;;;;3.83;1.90;;;1.50;99.90;;;;;;4949359;28;20185;-78
2022/04/03 07:19:36;;;;;;;1.83;1.60;;;1.60;99.90;;;;;;4967944;28;20207;-79
2022/04/03 07:22:02;;;;;;;2.87;1.90;;;1.80;99.90;;;;;;4949686;28;20189;-77
2022/04/03 07:24:27;;;;;;;3.00;1.90;;;2.00;99.90;;;;;;4968613;28;20185;-77
2022/04/03 07:26:56;;;;;;;2.43;1.80;;;2.20;99.90;;;;;;4948868;28;20185;-77
2022/04/03 07:29:23;;;;;;;1.93;1.73;;;2.20;99.90;;;;;;4967023;28;20213;-77
2022/04/03 07:31:53;;;;;;;3.03;1.93;;;2.30;99.90;;;;;;4949167;28;20201;-78
2022/04/03 07:34:19;;;;;;;2.23;1.60;;;2.40;99.90;;;;;;4968680;28;20181;-79
2022/04/03 07:36:45;;;;;;;4.13;2.00;;;2.40;99.90;;;;;;4950017;28;20182;-78
2022/04/03 07:39:12;;;;;;;2.40;1.70;;;2.40;99.90;;;;;;4968131;28;20382;-78
2022/04/03 07:41:38;;;;;;;3.67;1.80;;;2.50;99.90;;;;;;4967021;28;20577;-80
2022/04/03 07:44:05;;;;;;;2.20;1.70;;;2.70;99.90;;;;;;4950141;28;20195;-77
2022/04/03 07:46:31;;;;;;;2.40;1.77;;;2.90;99.90;;;;;;4969033;28;20227;-78
2022/04/03 07:48:57;;;;;;;2.27;1.60;;;2.90;99.90;;;;;;4952258;28;20252;-77
2022/04/03 07:51:23;;;;;;;3.13;1.73;;;2.90;99.90;;;;;;4968707;28;20275;-79
2022/04/03 07:53:49;;;;;;;2.00;1.60;;;2.90;99.90;;;;;;4967865;28;20180;-77
2022/04/03 07:56:15;;;;;;;2.50;1.50;;;3.20;99.90;;;;;;4973537;28;21167;-79
2022/04/03 07:58:40;;;;;;;2.73;2.03;;;3.30;99.90;;;;;;4951099;28;20244;-78
2022/04/03 08:01:06;;;;;;;3.20;1.90;;;3.50;99.90;;;;;;4967869;28;20199;-77
2022/04/03 08:03:31;;;;;;;2.80;2.10;;;3.70;99.90;;;;;;4968704;28;20193;-79
2022/04/03 08:05:57;;;;;;;3.93;1.63;;;3.80;99.90;;;;;;4949368;28;20247;-79
2022/04/03 08:08:23;;;;;;;1.90;1.50;;;4.00;99.90;;;;;;4950947;28;20693;-78
2022/04/03 08:10:48;;;;;;;2.10;1.70;;;4.10;99.90;;;;;;4969585;28;20720;-79
2022/04/03 08:13:14;;;;;;;2.10;1.60;;;4.00;99.90;;;;;;4968599;28;20189;-78
2022/04/03 08:15:41;;;;;;;3.40;1.40;;;4.10;99.90;;;;;;4968783;28;20189;-79
2022/04/03 08:18:07;;;;;;;3.03;2.13;;;4.20;99.90;;;;;;4968722;28;20220;-77
2022/04/03 08:20:33;;;;;;;4.50;2.13;;;4.40;99.90;;;;;;4951112;28;21133;-80
2022/04/03 08:23:03;;;;;;;2.33;1.40;;;4.60;99.90;;;;;;4968710;28;20547;-78
2022/04/03 08:25:32;;;;;;;2.00;1.70;;;4.70;99.90;;;;;;4968984;28;20197;-78
2022/04/03 08:28:00;;;;;;;2.40;1.60;;;4.80;99.90;;;;;;4968915;28;21158;-79
2022/04/03 08:30:31;;;;;;;2.13;1.67;;;4.90;99.90;;;;;;4965533;28;20699;-79
2022/04/03 08:33:05;;;;;;;3.03;1.73;;;4.80;99.90;;;;;;4967367;28;20258;-79
2022/04/03 08:35:32;;;;;;;2.23;1.57;;;5.10;99.90;;;;;;4950090;28;20188;-78
2022/04/03 08:37:59;;;;;;;2.17;1.70;;;5.10;99.90;;;;;;4949060;28;20204;-79
2022/04/03 08:40:26;;;;;;;2.40;1.70;;;5.10;99.90;;;;;;4949989;28;20191;-79
2022/04/03 08:42:53;;;;;;;2.03;1.57;;;5.20;99.90;;;;;;4969880;28;20200;-79
2022/04/03 08:45:20;;;;;;;1.90;1.57;;;5.30;99.90;;;;;;4967445;28;20184;-78
2022/04/03 08:47:49;;;;;;;2.03;1.43;;;5.40;99.90;;;;;;4951050;28;20213;-79
2022/04/03 08:50:16;;;;;;;2.17;1.63;;;5.50;99.90;;;;;;4943666;28;20188;-79
2022/04/03 08:52:46;;;;;;;5.13;2.20;;;5.50;99.90;;;;;;4966380;28;20217;-79
2022/04/03 08:55:12;;;;;;;2.60;2.03;;;5.50;99.90;;;;;;4949822;28;20190;-79
2022/04/03 08:57:38;;;;;;;3.20;1.87;;;5.50;99.90;;;;;;4948941;28;20209;-78
2022/04/03 09:00:05;;;;;;;1.70;1.60;;;5.70;99.90;;;;;;4951815;28;20674;-79
2022/04/03 09:02:31;;;;;;;1.53;1.37;;;5.90;99.90;;;;;;4953198;28;20189;-79
2022/04/03 09:04:57;;;;;;;1.50;1.40;;;6.00;99.90;;;;;;4950692;28;20216;-79
2022/04/03 09:07:27;;;;;;;1.73;1.43;;;6.10;99.90;;;;;;4969482;28;20268;-78
2022/04/03 09:09:58;;;;;;;2.47;1.60;;;6.10;99.90;;;;;;4952196;28;20287;-79
2022/04/03 09:12:24;;;;;;;1.77;1.50;;;6.20;99.90;;;;;;4970237;28;20216;-79
2022/04/03 09:14:52;;;;;;;2.73;1.63;;;6.50;99.90;;;;;;4966869;28;20219;-80
2022/04/03 09:17:40;;;;;;;3.37;1.90;;;6.80;99.90;;;;;;4947983;28;20965;-80
2022/04/03 09:20:12;;;;;;;2.80;1.50;;;6.60;99.90;;;;;;4951540;28;20234;-78
2022/04/03 09:22:47;;;;;;;2.30;1.40;;;6.20;99.90;;;;;;4951629;28;20223;-78
2022/04/03 09:25:22;;;;;;;2.63;1.50;;;6.20;99.90;;;;;;4953629;28;20191;-79
2022/04/03 09:27:56;;;;;;;1.97;1.17;;;6.60;99.90;;;;;;4945531;28;20314;-79
2022/04/03 09:30:30;;;;;;;1.50;1.27;;;7.00;99.90;;;;;;4969622;28;20262;-79
2022/04/03 09:32:58;;;;;;;3.03;2.00;;;7.20;99.90;;;;;;4942192;28;20254;-79
2022/04/03 09:35:45;;;;;;;5.53;3.17;;;7.40;99.70;;;;;;4968183;28;20192;-79
2022/04/03 09:38:16;;;;;;;2.63;1.97;;;7.40;97.20;;;;;;4953120;28;20204;-78
2022/04/03 09:40:49;;;;;;;2.27;1.20;;;7.50;98.60;;;;;;4966819;28;20196;-78
2022/04/03 09:43:26;;;;;;;1.20;1.10;;;7.40;98.00;;;;;;4967615;28;20185;-78
2022/04/03 09:45:58;;;;;;;1.23;1.03;;;7.10;98.60;;;;;;4967977;28;20276;-78
2022/04/03 09:48:39;;;;;;;1.40;1.20;;;7.40;97.90;;;;;;4969741;28;20223;-79
2022/04/03 09:51:19;;;;;;;2.00;1.70;;;7.30;97.20;;;;;;4968491;28;20763;-78
2022/04/03 09:53:46;;;;;;;2.20;1.60;;;7.10;97.60;;;;;;4951450;28;20181;-77
2022/04/03 09:56:34;;;;;;;3.17;1.53;;;7.00;98.10;;;;;;4951281;28;20199;-77
2022/04/03 09:59:10;;;;;;;1.87;1.67;;;6.80;99.00;;;;;;4968234;28;20216;-78
2022/04/03 10:01:41;;;;;;;3.57;2.03;;;6.50;99.90;;;;;;4966784;28;20193;-77
2022/04/03 10:04:10;;;;;;;2.50;1.43;;;6.50;99.90;;;;;;4951066;28;20572;-78
2022/04/03 10:06:38;;;;;;;1.50;1.40;;;6.60;99.90;;;;;;4962548;28;20213;-77
2022/04/03 10:09:07;;;;;;;1.40;1.10;;;6.60;99.90;;;;;;4971207;28;20631;-77
2022/04/03 10:11:33;;;;;;;1.60;1.30;;;6.80;99.50;;;;;;4981811;28;20216;-79
2022/04/03 10:13:58;;;;;;;1.73;1.23;;;7.00;98.80;;;;;;4966365;28;20193;-77
2022/04/03 10:16:24;;;;;;;1.83;1.07;;;7.30;97.50;;;;;;4981538;28;20185;-80
2022/04/03 10:18:51;;;;;;;1.63;1.50;;;7.60;97.70;;;;;;4979252;28;20209;-79
2022/04/03 10:21:32;;;;;;;1.17;1.00;;;8.00;97.00;;;;;;4961545;28;20203;-79
2022/04/03 10:24:18;;;;;;;1.40;0.93;;;8.30;96.00;;;;;;4984730;28;20669;-80
2022/04/03 10:27:24;;;;;;;0.90;0.80;;;7.90;95.00;;;;;;4966930;28;20185;-80
2022/04/03 10:29:51;;;;;;;1.07;0.93;;;7.80;95.20;;;;;;4897426;28;20202;-79
2022/04/03 10:32:30;;;;;;;1.70;0.87;;;8.10;94.60;;;;;;4966488;28;20728;-80
2022/04/03 10:34:59;;;;;;;2.63;1.00;;;8.00;94.60;;;;;;4981646;28;20499;-78
2022/04/03 10:37:30;;;;;;;2.20;1.23;;;7.90;95.00;;;;;;4973867;28;20582;-79
2022/04/03 10:40:07;;;;;;;1.60;1.13;;;7.90;95.40;;;;;;4955044;28;20219;-77
2022/04/03 10:42:47;;;;;;;0.83;0.70;;;7.50;95.50;;;;;;4970775;28;20185;-77
2022/04/03 10:45:12;;;;;;;1.10;0.77;;;6.90;96.50;;;;;;4952949;28;20555;-77
2022/04/03 10:47:40;;;;;;;1.83;1.27;;;6.70;97.30;;;;;;4952605;28;20204;-77
2022/04/03 10:50:08;;;;;;;1.87;1.50;;;6.70;98.30;;;;;;4968820;28;21061;-77
2022/04/03 10:52:36;;;;;;;1.57;1.37;;;6.70;97.90;;;;;;4959507;28;20217;-77
2022/04/03 10:55:10;;;;;;;1.97;1.43;;;6.70;98.60;;;;;;4967651;28;20265;-77
2022/04/03 10:57:54;;;;;;;2.23;1.20;;;6.80;98.70;;;;;;4964456;28;20188;-77
2022/04/03 11:00:20;;;;;;;3.03;1.10;;;7.00;98.90;;;;;;4952684;28;20221;-77
2022/04/03 11:02:55;;;;;;;1.57;1.20;;;7.20;98.90;;;;;;4948737;28;20632;-78
2022/04/03 11:05:21;;;;;;;2.50;1.20;;;7.30;98.90;;;;;;4963749;28;20203;-77
2022/04/03 11:08:10;;;;;;;2.37;1.60;;;7.30;97.80;;;;;;4949349;28;20272;-77
2022/04/03 11:10:54;;;;;;;2.53;1.43;;;7.30;98.10;;;;;;4951538;28;20254;-79
2022/04/03 11:13:32;;;;;;;3.47;1.30;;;7.10;97.70;;;;;;4947552;28;20195;-78
2022/04/03 11:16:10;;;;;;;1.57;1.20;;;7.10;97.90;;;;;;4966125;28;20189;-77
2022/04/03 11:18:47;;;;;;;1.80;1.40;;;6.90;98.20;;;;;;4952711;28;20235;-77
2022/04/03 11:21:23;;;;;;;2.53;1.40;;;6.90;98.30;;;;;;4968357;28;20196;-77
2022/04/03 11:23:57;;;;;;;1.13;1.03;;;7.00;98.90;;;;;;4964067;28;20216;-77
2022/04/03 11:26:23;;;;;;;2.47;1.37;;;6.90;99.20;;;;;;4949418;28;20317;-76
2022/04/03 11:28:49;;;;;;;1.77;1.20;;;7.00;99.00;;;;;;4968487;28;20243;-80
2022/04/03 11:31:15;;;;;;;1.73;0.90;;;7.00;99.50;;;;;;4988260;28;20209;-80
2022/04/03 11:33:41;;;;;;;1.20;1.10;;;7.20;99.50;;;;;;4965059;28;20664;-80
2022/04/03 11:36:16;;;;;;;1.97;1.43;;;7.50;99.30;;;;;;4946664;28;20185;-80
2022/04/03 11:38:44;;;;;;;1.57;1.00;;;7.40;99.10;;;;;;4946341;28;20479;-80
2022/04/03 11:41:12;;;;;;;2.07;1.20;;;7.60;98.80;;;;;;4947180;28;20190;-80
2022/04/03 11:43:40;;;;;;;2.37;1.00;;;7.90;98.80;;;;;;4964437;28;20837;-79
2022/04/03 11:46:07;;;;;;;2.13;1.00;;;8.10;98.50;;;;;;4964895;28;20276;-80
2022/04/03 11:48:43;;;;;;;1.80;1.00;;;8.10;98.70;;;;;;4963297;28;20221;-80
2022/04/03 11:51:11;;;;;;;1.20;1.10;;;8.10;98.60;;;;;;4964034;28;20215;-78
2022/04/03 11:53:39;;;;;;;1.70;1.13;;;8.00;98.50;;;;;;4964975;28;20269;-79
2022/04/03 11:56:09;;;;;;;0.77;0.70;;;8.00;98.70;;;;;;4963580;28;20945;-79
2022/04/03 11:58:40;;;;;;;3.00;0.93;;;7.90;98.10;;;;;;4963666;28;20569;-79
2022/04/03 12:01:07;;;;;;;1.90;1.00;;;7.70;98.40;;;;;;4946855;28;20237;-79
2022/04/03 12:03:35;;;;;;;1.27;0.97;;;8.00;98.80;;;;;;4946867;28;20470;-80
2022/04/03 12:06:18;;;;;;;1.40;1.20;;;7.80;98.00;;;;;;4946985;28;20200;-79
2022/04/03 12:08:48;;;;;;;1.63;1.20;;;7.80;98.10;;;;;;4964347;28;20535;-79
2022/04/03 12:11:28;;;;;;;1.10;0.93;;;7.90;98.00;;;;;;4962984;28;20212;-79
2022/04/03 12:13:56;;;;;;;1.83;0.90;;;8.00;98.40;;;;;;4964487;28;20211;-79
2022/04/03 12:16:23;;;;;;;1.57;0.80;;;8.20;98.40;;;;;;4945716;28;20409;-80
2022/04/03 12:18:53;;;;;;;0.90;0.80;;;8.90;97.70;;;;;;4946101;28;20300;-77
2022/04/03 12:21:19;;;;;;;4.80;2.30;;;9.10;96.20;;;;;;4963491;28;20189;-79
2022/04/03 12:24:04;;;;;;;1.33;1.23;;;8.90;95.50;;;;;;4944928;28;20220;-78
2022/04/03 12:26:31;;;;;;;0.90;0.90;;;8.30;96.20;;;;;;4963453;28;20266;-79
2022/04/03 12:28:57;;;;;;;1.23;1.07;;;7.60;99.00;;;;;;4963607;28;20670;-78
2022/04/03 12:31:29;;;;;;;2.47;1.17;;;6.90;99.90;;;;;;4963282;28;20266;-78
2022/04/03 12:34:15;;;;;;;1.63;1.43;;;6.40;99.90;;;;;;4963637;28;20223;-79
2022/04/03 12:36:46;;;;;;;1.57;1.10;;;6.10;99.90;;;;;;4962607;28;20250;-79
2022/04/03 12:39:31;;;;;;;1.40;0.97;;;6.00;99.90;;;;;;4963432;28;20213;-79
2022/04/03 12:42:35;;;;;;;7.50;2.43;;;6.10;99.90;;;;;;4964248;28;20200;-79
2022/04/03 12:45:05;;;;;;;1.23;0.97;;;6.00;99.90;;;;;;4965406;28;20188;-78
2022/04/03 12:47:39;;;;;;;1.57;1.23;;;6.00;99.90;;;;;;4963976;28;20192;-78
2022/04/03 12:50:11;;;;;;;1.60;1.20;;;6.20;99.90;;;;;;4947254;28;20459;-79
2022/04/03 12:52:49;;;;;;;3.20;1.03;;;6.40;99.90;;;;;;4946461;28;20796;-78
2022/04/03 13:00:46;;;;;;;1.50;1.10;;;7.40;99.90;;;;;;4964484;28;20253;-78